Nearby METAR Reports

 

KIMT - Iron Mountain, Michigan, USA
Distance from station: 0 29mi, 47km
Updated: Fri, 20-May-2022 10:54am CDT
Light rain, Overcast
Light rain, Overcast
 Wind from N
Wind: N 5 mph , 7 km/h
Temperature: 61°F , 16°C
Dew Point: 57°F , 14°C
Humidity: 88%
Barometer: 29.29 inHg , 991.9 hPa
Summary: Light rain
Clouds: Overcast
Visibility: 10 miles , 16 km
Cloud details: Overcast 5000 ft
2022/05/20 15:54 KIMT 201554Z AUTO 35004KT 10SM -RA OVC050 16/14 A2929 RMK AO2 RAB15 PRESFR SLP920 P0000 T01610139 TSNO
KMNM - Menominee, Michigan, USA
Distance from station: SE 31mi, 51km
Updated: Fri, 20-May-2022 10:56am CDT
Overcast
Overcast
 Wind from WSW
Wind: WSW 5 mph , 7 km/h
Temperature: 66°F , 19°C
Dew Point: 63°F , 17°C
Humidity: 88%
Barometer: 29.31 inHg , 992.5 hPa
Clouds: Overcast
Visibility: 10 miles , 16 km
Cloud details: Overcast 1300 ft
2022/05/20 15:56 KMNM 201556Z AUTO 24004KT 10SM OVC013 19/17 A2931 RMK AO2 RAB40E56 SLP924 P0000 T01890167 $
 
KOCQ - Oconto, Wisconsin, USA
Distance from station: SSE 38mi, 61km
Updated: Fri, 20-May-2022 10:55am CDT
Overcast
Overcast
 Wind from W
Wind: W 6 mph , 9 km/h
Temperature: 68°F , 20°C
Dew Point: 64°F , 18°C
Humidity: 88%
Barometer: 29.33 inHg , 993.2 hPa
Clouds: Overcast
Visibility: 10 miles , 16 km
Cloud details: Partly cloudy 1400 ft
Mostly cloudy 2700 ft
Overcast 4000 ft
2022/05/20 15:55 KOCQ 201555Z AUTO 26005KT 10SM SCT014 BKN027 OVC040 20/18 A2933 RMK AO1 T01960177
KEZS - Shawano Muni, Wisconsin, USA
Distance from station: SSW 48mi, 77km
Updated: Fri, 20-May-2022 11:15am CDT
Thunderstorm, Overcast
Thunderstorm, Overcast
 Wind from W
Wind: W 12 mph , 19 km/h
Temperature: 64°F , 18°C
Dew Point: 63°F , 17°C
Humidity: 94%
Barometer: 29.41 inHg , 995.9 hPa
Summary: Thunderstorm
Clouds: Overcast
Visibility: 10 miles , 16 km
Cloud details: Overcast 5000 ft
2022/05/20 16:15 KEZS 201615Z AUTO 27010KT 10SM TS OVC050 18/17 A2941 RMK AO2 LTG DSNT W THRU N T01830171
 
KAIG - Antigo/Langlade, Wisconsin, USA
Distance from station: WSW 51mi, 82km
Updated: Fri, 20-May-2022 11:15am CDT
Light rain, Mostly cloudy
Light rain, Mostly cloudy
 Wind from W
Wind: W 9 mph , 15 km/h
Temperature: 57°F , 14°C
Dew Point: 55°F , 13°C
Humidity: 94%
Barometer: 29.41 inHg , 995.9 hPa
Summary: Light rain
Clouds: Mostly cloudy
Visibility: 10 miles , 16 km
Cloud details: Partly cloudy 5500 ft
Mostly cloudy 6500 ft
Mostly cloudy 8500 ft
2022/05/20 16:15 KAIG 201615Z AUTO 27008KT 10SM -RA SCT055 BKN065 BKN085 14/13 A2941 RMK AO2 T01400131
KSUE - Sturgeon Bay, Wisconsin, USA
Distance from station: SE 51mi, 82km
Updated: Fri, 20-May-2022 10:56am CDT
Overcast
Overcast
 Wind from SE
Wind: SE 7 mph , 11 km/h
Temperature: 64°F , 18°C
Dew Point: 63°F , 17°C
Humidity: 94%
Barometer: 29.34 inHg , 993.6 hPa
Clouds: Overcast
Visibility: 9 miles , 14 km
Cloud details: Overcast 1500 ft
2022/05/20 15:56 KSUE 201556Z AUTO 14006KT 9SM OVC015 18/17 A2934 RMK AO2 SLP933 T01830167
 
KESC - Escanaba, Michigan, USA
Distance from station: ENE 56mi, 90km
Updated: Fri, 20-May-2022 10:56am CDT
Light rain, Mist, Overcast
Light rain, Mist, Overcast
 Wind from calm
Wind: Calm
Temperature: 54°F , 12°C
Dew Point: 54°F , 12°C
Humidity: 100%
Barometer: 29.35 inHg , 993.9 hPa
Summary: Light rain, Mist
Clouds: Overcast
Visibility: 1 3/4 miles , 2.8 km
Cloud details: Overcast 200 ft
2022/05/20 15:56 KESC 201556Z AUTO 00000KT 1 3/4SM -RA BR OVC002 12/12 A2935 RMK AO2 TSE03RAE15B49 SLP942 P0000 T01220122
KCLI - Clintonville, Wisconsin, USA
Distance from station: SSW 62mi, 99km
Updated: Wed, 27-Apr-2022 2:55am CDT
NOT Current
Clear
Clear
 Wind from N
Wind: N 3 mph , 6 km/h
Temperature: 28°F , -2°C
Dew Point: 16°F , -9°C
Humidity: 59%
Barometer: 30.36 inHg , 1028.1 hPa
Clouds: Clear
Visibility: 10 miles , 16 km
2022/04/27 07:55 KCLI 270755Z AUTO 36003KT 10SM CLR M02/M09 A3036 RMK AO2
 
KGRB - Ashwaubenon, Wisconsin, USA
Distance from station: S 63mi, 102km
Updated: Fri, 20-May-2022 11:13am CDT
Overcast
Overcast
 Wind from WSW
Wind: WSW 6 mph , 9 km/h
Temperature: 68°F , 20°C
Dew Point: 63°F , 17°C
Humidity: 83%
Barometer: 29.36 inHg , 994.2 hPa
Clouds: Overcast
Visibility: 9 miles , 14 km
Cloud details: Overcast 3100 ft
2022/05/20 16:13 KGRB 201613Z 25005KT 9SM OVC031 20/17 A2936 RMK AO2 T02000167
KEGV - Eagle River, Wisconsin, USA
Distance from station: NW 66mi, 107km
Updated: Fri, 20-May-2022 11:15am CDT
Light rain, Overcast
Light rain, Overcast
 Wind from W
Wind: W 12 mph , 19 km/h, Gust: 20 mph , 31 km/h
Temperature: 55°F , 13°C
Dew Point: 54°F , 12°C
Humidity: 94%
Barometer: 29.38 inHg , 994.9 hPa
Summary: Light rain
Clouds: Overcast
Visibility: 10 miles , 16 km
Cloud details: Partly cloudy 1300 ft
Mostly cloudy 1800 ft
Overcast 10000 ft
2022/05/20 16:15 KEGV 201615Z AUTO 26010G17KT 10SM -RA SCT013 BKN018 OVC100 13/12 A2938 RMK AO2 T01300122
 
KRHI - Rhinelander, Wisconsin, USA
Distance from station: WNW 68mi, 109km
Updated: Fri, 20-May-2022 10:53am CDT
Light rain, Overcast
Light rain, Overcast
 Wind from W
Wind: W 12 mph , 19 km/h
Temperature: 55°F , 13°C
Dew Point: 52°F , 11°C
Humidity: 88%
Barometer: 29.39 inHg , 995.3 hPa
Summary: Light rain
Clouds: Overcast
Visibility: 10 miles , 16 km
Cloud details: Few Clouds 1300 ft
Mostly cloudy 9000 ft
Overcast 11000 ft
2022/05/20 15:53 KRHI 201553Z AUTO 28010KT 10SM -RA FEW013 BKN090 OVC110 13/11 A2939 RMK AO2 LTG DSNT E-S RAB1454 SLP954 P0006 T01330111 $
KLNL - Land O Lakes, Wisconsin, USA
Distance from station: NW 74mi, 119km
Updated: Fri, 20-May-2022 11:15am CDT

 Wind from W
Wind: W 9 mph , 15 km/h, Gust: 21 mph , 33 km/h
Visibility: 10 miles , 16 km
2022/05/20 16:15 KLNL 201615Z AUTO 26008G18KT 10SM -VCTSRA SCT013 SCT020 OVC028 13/11 A2941 RMK AO2 LTG DSNT S T01260110
 
KSAW - Gwinn/Sawyer, Michigan, USA
Distance from station: NNE 74mi, 120km
Updated: Fri, 20-May-2022 10:48am CDT
Light rain, Overcast
Light rain, Overcast
 Wind from S
Wind: S 6 mph , 9 km/h
Temperature: 61°F , 16°C
Dew Point: 59°F , 15°C
Humidity: 94%
Barometer: 29.32 inHg , 992.9 hPa
Summary: Light rain
Clouds: Overcast
Visibility: 10 miles , 16 km
Cloud details: Partly cloudy 700 ft
Overcast 5000 ft
2022/05/20 15:48 KSAW 201548Z 19005KT 10SM -RA SCT007 OVC050 16/15 A2932 RMK LTG DSNT SW